sensor_id;sensor_type;location;lat;lon;timestamp;P1;durP1;ratioP1;P2;durP2;ratioP2
7074;SDS011;3578;51.568;6.932;2023-04-01T00:01:55;5.87;;;3.47;;
7074;SDS011;3578;51.568;6.932;2023-04-01T00:04:22;8.23;;;4.50;;
7074;SDS011;3578;51.568;6.932;2023-04-01T00:06:51;6.53;;;3.70;;
7074;SDS011;3578;51.568;6.932;2023-04-01T00:09:18;8.13;;;4.80;;
7074;SDS011;3578;51.568;6.932;2023-04-01T00:11:45;7.00;;;4.53;;
7074;SDS011;3578;51.568;6.932;2023-04-01T00:14:12;9.93;;;5.30;;
7074;SDS011;3578;51.568;6.932;2023-04-01T00:16:39;9.60;;;5.00;;
7074;SDS011;3578;51.568;6.932;2023-04-01T00:19:06;11.03;;;5.10;;
7074;SDS011;3578;51.568;6.932;2023-04-01T00:21:34;10.47;;;5.03;;
7074;SDS011;3578;51.568;6.932;2023-04-01T00:24:03;10.97;;;5.80;;
7074;SDS011;3578;51.568;6.932;2023-04-01T00:26:30;10.50;;;4.77;;
7074;SDS011;3578;51.568;6.932;2023-04-01T00:28:58;8.50;;;5.70;;
7074;SDS011;3578;51.568;6.932;2023-04-01T00:31:25;7.60;;;5.10;;
7074;SDS011;3578;51.568;6.932;2023-04-01T00:33:52;10.23;;;4.80;;
7074;SDS011;3578;51.568;6.932;2023-04-01T00:36:20;7.50;;;4.60;;
7074;SDS011;3578;51.568;6.932;2023-04-01T00:38:48;12.80;;;4.67;;
7074;SDS011;3578;51.568;6.932;2023-04-01T00:41:18;5.93;;;3.40;;
7074;SDS011;3578;51.568;6.932;2023-04-01T00:43:47;8.37;;;4.10;;
7074;SDS011;3578;51.568;6.932;2023-04-01T00:46:16;8.10;;;3.90;;
7074;SDS011;3578;51.568;6.932;2023-04-01T00:48:45;5.13;;;3.70;;
7074;SDS011;3578;51.568;6.932;2023-04-01T00:51:17;5.10;;;3.20;;
7074;SDS011;3578;51.568;6.932;2023-04-01T00:53:48;3.43;;;3.20;;
7074;SDS011;3578;51.568;6.932;2023-04-01T00:56:21;7.17;;;3.57;;
7074;SDS011;3578;51.568;6.932;2023-04-01T00:58:53;5.80;;;4.27;;
7074;SDS011;3578;51.568;6.932;2023-04-01T01:01:25;6.00;;;3.90;;
7074;SDS011;3578;51.568;6.932;2023-04-01T01:03:53;4.37;;;4.03;;
7074;SDS011;3578;51.568;6.932;2023-04-01T01:06:23;5.70;;;4.10;;
7074;SDS011;3578;51.568;6.932;2023-04-01T01:09:10;7.10;;;4.30;;
7074;SDS011;3578;51.568;6.932;2023-04-01T01:11:54;8.70;;;5.40;;
7074;SDS011;3578;51.568;6.932;2023-04-01T01:14:33;5.60;;;5.10;;
7074;SDS011;3578;51.568;6.932;2023-04-01T01:17:19;8.97;;;5.57;;
7074;SDS011;3578;51.568;6.932;2023-04-01T01:20:17;7.10;;;5.60;;
7074;SDS011;3578;51.568;6.932;2023-04-01T01:23:05;7.97;;;5.33;;
7074;SDS011;3578;51.568;6.932;2023-04-01T01:26:02;13.77;;;6.20;;
7074;SDS011;3578;51.568;6.932;2023-04-01T01:29:04;9.03;;;6.57;;
7074;SDS011;3578;51.568;6.932;2023-04-01T01:31:45;8.73;;;5.60;;
7074;SDS011;3578;51.568;6.932;2023-04-01T01:34:21;7.57;;;6.07;;
7074;SDS011;3578;51.568;6.932;2023-04-01T01:36:57;5.33;;;4.77;;
7074;SDS011;3578;51.568;6.932;2023-04-01T01:39:29;4.80;;;4.30;;
7074;SDS011;3578;51.568;6.932;2023-04-01T01:42:01;5.20;;;4.70;;
7074;SDS011;3578;51.568;6.932;2023-04-01T01:44:32;6.87;;;5.50;;
7074;SDS011;3578;51.568;6.932;2023-04-01T01:47:01;4.73;;;4.30;;
7074;SDS011;3578;51.568;6.932;2023-04-01T01:49:29;7.30;;;5.27;;
7074;SDS011;3578;51.568;6.932;2023-04-01T01:52:02;6.53;;;5.03;;
7074;SDS011;3578;51.568;6.932;2023-04-01T01:54:29;4.37;;;3.97;;
7074;SDS011;3578;51.568;6.932;2023-04-01T01:56:58;5.53;;;4.83;;
7074;SDS011;3578;51.568;6.932;2023-04-01T01:59:33;7.40;;;4.80;;
7074;SDS011;3578;51.568;6.932;2023-04-01T02:02:04;9.50;;;4.67;;
7074;SDS011;3578;51.568;6.932;2023-04-01T02:04:33;6.80;;;5.20;;
7074;SDS011;3578;51.568;6.932;2023-04-01T02:07:07;8.13;;;4.83;;
7074;SDS011;3578;51.568;6.932;2023-04-01T02:09:39;5.17;;;4.30;;
7074;SDS011;3578;51.568;6.932;2023-04-01T02:12:07;9.87;;;5.03;;
7074;SDS011;3578;51.568;6.932;2023-04-01T02:14:39;6.00;;;4.30;;
7074;SDS011;3578;51.568;6.932;2023-04-01T02:17:11;4.40;;;3.70;;
7074;SDS011;3578;51.568;6.932;2023-04-01T02:19:44;4.73;;;4.30;;
7074;SDS011;3578;51.568;6.932;2023-04-01T02:22:18;6.50;;;4.50;;
7074;SDS011;3578;51.568;6.932;2023-04-01T02:24:50;5.27;;;4.60;;
7074;SDS011;3578;51.568;6.932;2023-04-01T02:27:20;6.67;;;4.13;;
7074;SDS011;3578;51.568;6.932;2023-04-01T02:29:47;6.47;;;4.37;;
7074;SDS011;3578;51.568;6.932;2023-04-01T02:32:14;8.53;;;5.17;;
7074;SDS011;3578;51.568;6.932;2023-04-01T02:34:44;4.80;;;3.90;;
7074;SDS011;3578;51.568;6.932;2023-04-01T02:37:13;8.47;;;4.50;;
7074;SDS011;3578;51.568;6.932;2023-04-01T02:39:42;4.43;;;4.13;;
7074;SDS011;3578;51.568;6.932;2023-04-01T02:42:09;5.40;;;4.00;;
7074;SDS011;3578;51.568;6.932;2023-04-01T02:44:37;5.63;;;4.00;;
7074;SDS011;3578;51.568;6.932;2023-04-01T02:47:04;4.27;;;3.33;;
7074;SDS011;3578;51.568;6.932;2023-04-01T02:49:31;11.03;;;4.03;;
7074;SDS011;3578;51.568;6.932;2023-04-01T02:51:58;8.43;;;4.33;;
7074;SDS011;3578;51.568;6.932;2023-04-01T02:54:25;5.90;;;3.93;;
7074;SDS011;3578;51.568;6.932;2023-04-01T02:56:53;4.80;;;3.63;;
7074;SDS011;3578;51.568;6.932;2023-04-01T02:59:20;6.00;;;3.30;;
7074;SDS011;3578;51.568;6.932;2023-04-01T03:01:47;4.13;;;3.37;;
7074;SDS011;3578;51.568;6.932;2023-04-01T03:04:14;5.20;;;2.90;;
7074;SDS011;3578;51.568;6.932;2023-04-01T03:06:41;3.50;;;2.90;;
7074;SDS011;3578;51.568;6.932;2023-04-01T03:09:08;2.93;;;2.73;;
7074;SDS011;3578;51.568;6.932;2023-04-01T03:11:35;10.93;;;4.13;;
7074;SDS011;3578;51.568;6.932;2023-04-01T03:14:04;6.77;;;2.97;;
7074;SDS011;3578;51.568;6.932;2023-04-01T03:16:32;3.23;;;2.93;;
7074;SDS011;3578;51.568;6.932;2023-04-01T03:18:58;3.27;;;2.80;;
7074;SDS011;3578;51.568;6.932;2023-04-01T03:21:27;4.03;;;3.10;;
7074;SDS011;3578;51.568;6.932;2023-04-01T03:23:54;4.40;;;2.97;;
7074;SDS011;3578;51.568;6.932;2023-04-01T03:26:21;4.70;;;3.23;;
7074;SDS011;3578;51.568;6.932;2023-04-01T03:28:48;3.07;;;2.87;;
7074;SDS011;3578;51.568;6.932;2023-04-01T03:31:16;4.23;;;3.00;;
7074;SDS011;3578;51.568;6.932;2023-04-01T03:33:43;4.40;;;3.20;;
7074;SDS011;3578;51.568;6.932;2023-04-01T03:36:11;2.93;;;2.73;;
7074;SDS011;3578;51.568;6.932;2023-04-01T03:38:38;4.30;;;3.53;;
7074;SDS011;3578;51.568;6.932;2023-04-01T03:41:07;3.93;;;3.60;;
7074;SDS011;3578;51.568;6.932;2023-04-01T03:43:38;3.67;;;3.37;;
7074;SDS011;3578;51.568;6.932;2023-04-01T03:46:05;4.60;;;3.60;;
7074;SDS011;3578;51.568;6.932;2023-04-01T03:48:33;5.20;;;4.03;;
7074;SDS011;3578;51.568;6.932;2023-04-01T03:51:00;4.53;;;4.13;;
7074;SDS011;3578;51.568;6.932;2023-04-01T03:53:28;7.00;;;4.00;;
7074;SDS011;3578;51.568;6.932;2023-04-01T03:55:55;4.63;;;4.27;;
7074;SDS011;3578;51.568;6.932;2023-04-01T03:58:21;3.80;;;3.50;;
7074;SDS011;3578;51.568;6.932;2023-04-01T04:00:48;5.80;;;4.00;;
7074;SDS011;3578;51.568;6.932;2023-04-01T04:03:15;5.77;;;4.17;;
7074;SDS011;3578;51.568;6.932;2023-04-01T04:05:47;7.43;;;4.20;;
7074;SDS011;3578;51.568;6.932;2023-04-01T04:08:15;4.20;;;3.90;;
7074;SDS011;3578;51.568;6.932;2023-04-01T04:10:43;4.40;;;4.10;;
7074;SDS011;3578;51.568;6.932;2023-04-01T04:13:11;4.73;;;4.33;;
7074;SDS011;3578;51.568;6.932;2023-04-01T04:15:38;6.43;;;4.63;;
7074;SDS011;3578;51.568;6.932;2023-04-01T04:18:05;4.20;;;3.90;;
7074;SDS011;3578;51.568;6.932;2023-04-01T04:20:32;4.60;;;4.20;;
7074;SDS011;3578;51.568;6.932;2023-04-01T04:23:01;4.37;;;4.07;;
7074;SDS011;3578;51.568;6.932;2023-04-01T04:25:28;8.47;;;4.90;;
7074;SDS011;3578;51.568;6.932;2023-04-01T04:27:55;6.60;;;5.03;;
7074;SDS011;3578;51.568;6.932;2023-04-01T04:30:22;4.60;;;4.00;;
7074;SDS011;3578;51.568;6.932;2023-04-01T04:32:49;4.90;;;4.50;;
7074;SDS011;3578;51.568;6.932;2023-04-01T04:35:16;5.43;;;4.53;;
7074;SDS011;3578;51.568;6.932;2023-04-01T04:37:43;5.17;;;4.77;;
7074;SDS011;3578;51.568;6.932;2023-04-01T04:40:11;5.37;;;4.77;;
7074;SDS011;3578;51.568;6.932;2023-04-01T04:42:38;6.60;;;4.90;;
7074;SDS011;3578;51.568;6.932;2023-04-01T04:45:05;7.00;;;5.53;;
7074;SDS011;3578;51.568;6.932;2023-04-01T04:47:33;6.37;;;5.80;;
7074;SDS011;3578;51.568;6.932;2023-04-01T04:50:00;6.70;;;5.37;;
7074;SDS011;3578;51.568;6.932;2023-04-01T04:52:27;6.63;;;5.33;;
7074;SDS011;3578;51.568;6.932;2023-04-01T04:54:54;8.30;;;6.10;;
7074;SDS011;3578;51.568;6.932;2023-04-01T04:57:22;5.90;;;5.40;;
7074;SDS011;3578;51.568;6.932;2023-04-01T04:59:49;7.40;;;6.07;;
7074;SDS011;3578;51.568;6.932;2023-04-01T05:02:16;8.73;;;5.83;;
7074;SDS011;3578;51.568;6.932;2023-04-01T05:04:43;8.10;;;5.83;;
7074;SDS011;3578;51.568;6.932;2023-04-01T05:07:10;6.50;;;5.80;;
7074;SDS011;3578;51.568;6.932;2023-04-01T05:09:38;6.40;;;5.77;;
7074;SDS011;3578;51.568;6.932;2023-04-01T05:12:05;5.87;;;5.30;;
7074;SDS011;3578;51.568;6.932;2023-04-01T05:14:33;5.77;;;5.33;;
7074;SDS011;3578;51.568;6.932;2023-04-01T05:17:00;5.50;;;5.03;;
7074;SDS011;3578;51.568;6.932;2023-04-01T05:19:27;5.47;;;5.00;;
7074;SDS011;3578;51.568;6.932;2023-04-01T05:21:54;6.10;;;5.20;;
7074;SDS011;3578;51.568;6.932;2023-04-01T05:24:22;5.80;;;5.17;;
7074;SDS011;3578;51.568;6.932;2023-04-01T05:26:54;8.20;;;5.47;;
7074;SDS011;3578;51.568;6.932;2023-04-01T05:29:22;5.80;;;5.30;;
7074;SDS011;3578;51.568;6.932;2023-04-01T05:31:52;5.77;;;5.17;;
7074;SDS011;3578;51.568;6.932;2023-04-01T05:34:20;5.43;;;5.03;;
7074;SDS011;3578;51.568;6.932;2023-04-01T05:36:47;5.90;;;5.50;;
7074;SDS011;3578;51.568;6.932;2023-04-01T05:39:14;6.60;;;5.13;;
7074;SDS011;3578;51.568;6.932;2023-04-01T05:41:41;5.33;;;4.93;;
7074;SDS011;3578;51.568;6.932;2023-04-01T05:44:10;5.07;;;4.67;;
7074;SDS011;3578;51.568;6.932;2023-04-01T05:46:38;7.80;;;5.67;;
7074;SDS011;3578;51.568;6.932;2023-04-01T05:49:06;6.20;;;5.70;;
7074;SDS011;3578;51.568;6.932;2023-04-01T05:51:33;6.30;;;5.90;;
7074;SDS011;3578;51.568;6.932;2023-04-01T05:54:01;6.30;;;5.80;;
7074;SDS011;3578;51.568;6.932;2023-04-01T05:56:29;5.90;;;5.40;;
7074;SDS011;3578;51.568;6.932;2023-04-01T05:58:56;5.93;;;5.43;;
7074;SDS011;3578;51.568;6.932;2023-04-01T06:01:23;7.50;;;6.27;;
7074;SDS011;3578;51.568;6.932;2023-04-01T06:03:50;6.30;;;5.80;;
7074;SDS011;3578;51.568;6.932;2023-04-01T06:06:20;6.70;;;6.00;;
7074;SDS011;3578;51.568;6.932;2023-04-01T06:08:51;7.53;;;6.93;;
7074;SDS011;3578;51.568;6.932;2023-04-01T06:11:22;6.60;;;6.13;;
7074;SDS011;3578;51.568;6.932;2023-04-01T06:14:10;7.13;;;6.63;;
7074;SDS011;3578;51.568;6.932;2023-04-01T06:16:54;7.53;;;6.90;;
7074;SDS011;3578;51.568;6.932;2023-04-01T06:19:39;7.77;;;7.10;;
7074;SDS011;3578;51.568;6.932;2023-04-01T06:22:17;7.53;;;6.93;;
7074;SDS011;3578;51.568;6.932;2023-04-01T06:25:10;7.70;;;7.10;;
7074;SDS011;3578;51.568;6.932;2023-04-01T06:28:10;9.80;;;7.70;;
7074;SDS011;3578;51.568;6.932;2023-04-01T06:31:09;8.50;;;7.80;;
7074;SDS011;3578;51.568;6.932;2023-04-01T06:33:53;7.60;;;6.90;;
7074;SDS011;3578;51.568;6.932;2023-04-01T06:36:38;7.90;;;7.20;;
7074;SDS011;3578;51.568;6.932;2023-04-01T06:39:30;8.10;;;7.50;;
7074;SDS011;3578;51.568;6.932;2023-04-01T06:45:32;9.07;;;7.77;;
7074;SDS011;3578;51.568;6.932;2023-04-01T06:48:10;8.10;;;7.40;;
7074;SDS011;3578;51.568;6.932;2023-04-01T06:51:02;8.83;;;8.13;;
7074;SDS011;3578;51.568;6.932;2023-04-01T06:53:47;10.07;;;9.20;;
7074;SDS011;3578;51.568;6.932;2023-04-01T06:56:22;9.47;;;8.50;;
7074;SDS011;3578;51.568;6.932;2023-04-01T06:58:55;10.13;;;9.03;;
7074;SDS011;3578;51.568;6.932;2023-04-01T07:01:27;10.60;;;9.50;;
7074;SDS011;3578;51.568;6.932;2023-04-01T07:03:59;11.70;;;10.57;;
7074;SDS011;3578;51.568;6.932;2023-04-01T07:06:34;10.57;;;9.50;;
7074;SDS011;3578;51.568;6.932;2023-04-01T07:09:05;10.90;;;9.80;;
7074;SDS011;3578;51.568;6.932;2023-04-01T07:11:39;10.73;;;9.83;;
7074;SDS011;3578;51.568;6.932;2023-04-01T07:14:09;10.23;;;9.23;;
7074;SDS011;3578;51.568;6.932;2023-04-01T07:16:46;10.93;;;9.93;;
7074;SDS011;3578;51.568;6.932;2023-04-01T07:19:21;10.70;;;9.60;;
7074;SDS011;3578;51.568;6.932;2023-04-01T07:21:54;9.67;;;8.87;;
7074;SDS011;3578;51.568;6.932;2023-04-01T07:24:25;10.70;;;9.80;;
7074;SDS011;3578;51.568;6.932;2023-04-01T07:26:59;17.87;;;11.03;;
7074;SDS011;3578;51.568;6.932;2023-04-01T07:29:26;12.30;;;11.30;;
7074;SDS011;3578;51.568;6.932;2023-04-01T07:32:01;13.17;;;11.77;;
7074;SDS011;3578;51.568;6.932;2023-04-01T07:34:52;12.33;;;11.10;;
7074;SDS011;3578;51.568;6.932;2023-04-01T07:37:34;14.23;;;12.00;;
7074;SDS011;3578;51.568;6.932;2023-04-01T07:40:15;14.80;;;12.53;;
7074;SDS011;3578;51.568;6.932;2023-04-01T07:43:04;14.33;;;12.70;;
7074;SDS011;3578;51.568;6.932;2023-04-01T07:45:50;19.33;;;13.87;;
7074;SDS011;3578;51.568;6.932;2023-04-01T07:48:28;15.10;;;13.30;;
7074;SDS011;3578;51.568;6.932;2023-04-01T07:51:06;14.57;;;13.10;;
7074;SDS011;3578;51.568;6.932;2023-04-01T07:53:42;12.97;;;11.70;;
7074;SDS011;3578;51.568;6.932;2023-04-01T07:56:16;13.90;;;12.50;;
7074;SDS011;3578;51.568;6.932;2023-04-01T07:58:54;16.13;;;13.00;;
7074;SDS011;3578;51.568;6.932;2023-04-01T08:01:33;16.00;;;13.60;;
7074;SDS011;3578;51.568;6.932;2023-04-01T08:04:17;15.50;;;13.83;;
7074;SDS011;3578;51.568;6.932;2023-04-01T08:06:56;16.43;;;14.73;;
7074;SDS011;3578;51.568;6.932;2023-04-01T08:09:32;16.13;;;13.90;;
7074;SDS011;3578;51.568;6.932;2023-04-01T08:12:13;16.10;;;14.37;;
7074;SDS011;3578;51.568;6.932;2023-04-01T08:14:58;17.77;;;14.40;;
7074;SDS011;3578;51.568;6.932;2023-04-01T08:17:47;15.73;;;13.33;;
7074;SDS011;3578;51.568;6.932;2023-04-01T08:20:28;15.93;;;12.80;;
7074;SDS011;3578;51.568;6.932;2023-04-01T08:23:04;14.13;;;12.30;;
7074;SDS011;3578;51.568;6.932;2023-04-01T08:25:38;13.20;;;11.77;;
7074;SDS011;3578;51.568;6.932;2023-04-01T08:28:11;13.80;;;11.73;;
7074;SDS011;3578;51.568;6.932;2023-04-01T08:30:48;12.30;;;11.20;;
7074;SDS011;3578;51.568;6.932;2023-04-01T08:33:22;13.10;;;11.00;;
7074;SDS011;3578;51.568;6.932;2023-04-01T08:35:54;13.20;;;11.90;;
7074;SDS011;3578;51.568;6.932;2023-04-01T08:38:27;14.73;;;12.80;;
7074;SDS011;3578;51.568;6.932;2023-04-01T08:40:59;12.73;;;11.53;;
7074;SDS011;3578;51.568;6.932;2023-04-01T08:43:46;15.47;;;13.07;;
7074;SDS011;3578;51.568;6.932;2023-04-01T08:53:13;12.97;;;11.43;;
7074;SDS011;3578;51.568;6.932;2023-04-01T08:55:56;12.67;;;11.47;;
7074;SDS011;3578;51.568;6.932;2023-04-01T09:01:34;12.53;;;11.07;;
7074;SDS011;3578;51.568;6.932;2023-04-01T09:04:32;12.20;;;10.90;;
7074;SDS011;3578;51.568;6.932;2023-04-01T09:07:20;11.20;;;9.70;;
7074;SDS011;3578;51.568;6.932;2023-04-01T09:10:18;11.27;;;9.87;;
7074;SDS011;3578;51.568;6.932;2023-04-01T09:13:04;10.10;;;8.97;;
7074;SDS011;3578;51.568;6.932;2023-04-01T09:15:54;11.90;;;10.20;;
7074;SDS011;3578;51.568;6.932;2023-04-01T09:18:54;11.50;;;10.30;;
7074;SDS011;3578;51.568;6.932;2023-04-01T09:21:44;11.03;;;9.83;;
7074;SDS011;3578;51.568;6.932;2023-04-01T09:27:53;10.67;;;9.67;;
7074;SDS011;3578;51.568;6.932;2023-04-01T09:30:31;10.20;;;9.27;;
7074;SDS011;3578;51.568;6.932;2023-04-01T09:33:34;8.83;;;7.97;;
7074;SDS011;3578;51.568;6.932;2023-04-01T09:36:49;9.50;;;8.67;;
7074;SDS011;3578;51.568;6.932;2023-04-01T09:39:36;9.03;;;8.23;;
7074;SDS011;3578;51.568;6.932;2023-04-01T09:42:15;10.03;;;8.83;;
7074;SDS011;3578;51.568;6.932;2023-04-01T09:45:00;8.73;;;7.97;;
7074;SDS011;3578;51.568;6.932;2023-04-01T09:47:38;9.50;;;8.60;;
7074;SDS011;3578;51.568;6.932;2023-04-01T09:50:26;9.63;;;8.63;;
7074;SDS011;3578;51.568;6.932;2023-04-01T09:53:10;9.63;;;8.60;;
7074;SDS011;3578;51.568;6.932;2023-04-01T10:03:16;9.70;;;8.90;;
7074;SDS011;3578;51.568;6.932;2023-04-01T10:13:47;9.00;;;8.20;;
7074;SDS011;3578;51.568;6.932;2023-04-01T10:16:59;7.77;;;7.07;;
7074;SDS011;3578;51.568;6.932;2023-04-01T10:20:17;8.77;;;6.67;;
7074;SDS011;3578;51.568;6.932;2023-04-01T10:23:45;7.20;;;6.50;;
7074;SDS011;3578;51.568;6.932;2023-04-01T10:26:36;6.57;;;5.90;;
7074;SDS011;3578;51.568;6.932;2023-04-01T10:29:36;7.00;;;6.40;;
7074;SDS011;3578;51.568;6.932;2023-04-01T10:32:57;7.17;;;6.57;;
7074;SDS011;3578;51.568;6.932;2023-04-01T10:36:06;7.00;;;6.40;;
7074;SDS011;3578;51.568;6.932;2023-04-01T10:39:07;6.83;;;6.30;;
7074;SDS011;3578;51.568;6.932;2023-04-01T10:42:10;5.97;;;5.37;;
7074;SDS011;3578;51.568;6.932;2023-04-01T10:52:44;6.70;;;6.20;;
7074;SDS011;3578;51.568;6.932;2023-04-01T10:55:48;7.50;;;6.90;;
7074;SDS011;3578;51.568;6.932;2023-04-01T10:58:55;7.63;;;7.00;;
7074;SDS011;3578;51.568;6.932;2023-04-01T11:02:07;7.10;;;6.50;;
7074;SDS011;3578;51.568;6.932;2023-04-01T11:08:25;8.07;;;7.33;;
7074;SDS011;3578;51.568;6.932;2023-04-01T11:12:11;8.67;;;7.90;;
7074;SDS011;3578;51.568;6.932;2023-04-01T11:18:38;8.97;;;7.80;;
7074;SDS011;3578;51.568;6.932;2023-04-01T11:21:59;8.67;;;7.73;;
7074;SDS011;3578;51.568;6.932;2023-04-01T11:25:04;8.10;;;7.30;;
7074;SDS011;3578;51.568;6.932;2023-04-01T11:28:14;8.43;;;6.57;;
7074;SDS011;3578;51.568;6.932;2023-04-01T11:31:15;7.60;;;7.00;;
7074;SDS011;3578;51.568;6.932;2023-04-01T11:34:01;6.93;;;6.20;;
7074;SDS011;3578;51.568;6.932;2023-04-01T11:36:41;7.40;;;6.50;;
7074;SDS011;3578;51.568;6.932;2023-04-01T11:39:24;6.80;;;6.07;;
7074;SDS011;3578;51.568;6.932;2023-04-01T11:42:03;7.20;;;6.50;;
7074;SDS011;3578;51.568;6.932;2023-04-01T11:44:45;6.87;;;6.30;;
7074;SDS011;3578;51.568;6.932;2023-04-01T11:47:28;7.77;;;7.00;;
7074;SDS011;3578;51.568;6.932;2023-04-01T11:50:24;7.53;;;6.93;;
7074;SDS011;3578;51.568;6.932;2023-04-01T11:53:07;9.83;;;7.83;;
7074;SDS011;3578;51.568;6.932;2023-04-01T11:56:06;9.00;;;8.10;;
7074;SDS011;3578;51.568;6.932;2023-04-01T11:58:56;10.63;;;7.93;;
7074;SDS011;3578;51.568;6.932;2023-04-01T12:01:58;10.73;;;8.20;;
7074;SDS011;3578;51.568;6.932;2023-04-01T12:04:38;9.13;;;8.27;;
7074;SDS011;3578;51.568;6.932;2023-04-01T12:07:23;8.03;;;7.33;;
7074;SDS011;3578;51.568;6.932;2023-04-01T12:10:15;10.83;;;9.30;;
7074;SDS011;3578;51.568;6.932;2023-04-01T12:12:49;11.10;;;9.00;;
7074;SDS011;3578;51.568;6.932;2023-04-01T12:15:27;11.20;;;9.50;;
7074;SDS011;3578;51.568;6.932;2023-04-01T12:18:05;11.67;;;9.57;;
7074;SDS011;3578;51.568;6.932;2023-04-01T12:20:45;9.87;;;8.50;;
7074;SDS011;3578;51.568;6.932;2023-04-01T12:23:26;9.63;;;8.70;;
7074;SDS011;3578;51.568;6.932;2023-04-01T12:26:19;11.70;;;8.77;;
7074;SDS011;3578;51.568;6.932;2023-04-01T12:29:16;10.57;;;9.47;;
7074;SDS011;3578;51.568;6.932;2023-04-01T12:32:10;10.40;;;9.40;;
7074;SDS011;3578;51.568;6.932;2023-04-01T12:34:50;11.30;;;10.10;;
7074;SDS011;3578;51.568;6.932;2023-04-01T12:37:32;13.53;;;10.07;;
7074;SDS011;3578;51.568;6.932;2023-04-01T12:40:20;11.23;;;9.60;;
7074;SDS011;3578;51.568;6.932;2023-04-01T12:46:02;10.90;;;8.90;;
7074;SDS011;3578;51.568;6.932;2023-04-01T12:51:53;9.93;;;9.03;;
7074;SDS011;3578;51.568;6.932;2023-04-01T13:01:27;10.53;;;9.33;;
7074;SDS011;3578;51.568;6.932;2023-04-01T13:04:27;11.47;;;8.97;;
7074;SDS011;3578;51.568;6.932;2023-04-01T13:07:24;9.83;;;8.83;;
7074;SDS011;3578;51.568;6.932;2023-04-01T13:10:14;9.30;;;8.40;;
7074;SDS011;3578;51.568;6.932;2023-04-01T13:18:48;10.07;;;8.37;;
7074;SDS011;3578;51.568;6.932;2023-04-01T13:21:26;8.10;;;7.30;;
7074;SDS011;3578;51.568;6.932;2023-04-01T13:24:06;9.07;;;8.23;;
7074;SDS011;3578;51.568;6.932;2023-04-01T13:26:49;11.67;;;8.40;;
7074;SDS011;3578;51.568;6.932;2023-04-01T13:29:25;10.03;;;8.77;;
7074;SDS011;3578;51.568;6.932;2023-04-01T13:32:02;13.80;;;9.93;;
7074;SDS011;3578;51.568;6.932;2023-04-01T13:34:46;10.03;;;9.10;;
7074;SDS011;3578;51.568;6.932;2023-04-01T13:37:40;11.97;;;10.67;;
7074;SDS011;3578;51.568;6.932;2023-04-01T13:40:23;11.57;;;10.27;;
7074;SDS011;3578;51.568;6.932;2023-04-01T13:43:04;13.30;;;11.33;;
7074;SDS011;3578;51.568;6.932;2023-04-01T13:45:44;15.33;;;11.23;;
7074;SDS011;3578;51.568;6.932;2023-04-01T13:49:06;11.50;;;10.30;;
7074;SDS011;3578;51.568;6.932;2023-04-01T13:55:20;8.97;;;8.10;;
7074;SDS011;3578;51.568;6.932;2023-04-01T13:58:04;9.07;;;8.17;;
7074;SDS011;3578;51.568;6.932;2023-04-01T14:00:55;9.40;;;8.40;;
7074;SDS011;3578;51.568;6.932;2023-04-01T14:03:36;13.67;;;10.50;;
7074;SDS011;3578;51.568;6.932;2023-04-01T14:06:40;11.60;;;10.40;;
7074;SDS011;3578;51.568;6.932;2023-04-01T14:09:40;13.63;;;11.17;;
7074;SDS011;3578;51.568;6.932;2023-04-01T14:12:31;16.50;;;12.50;;
7074;SDS011;3578;51.568;6.932;2023-04-01T14:18:19;12.20;;;11.00;;
7074;SDS011;3578;51.568;6.932;2023-04-01T14:21:07;15.53;;;10.80;;
7074;SDS011;3578;51.568;6.932;2023-04-01T14:23:51;13.83;;;10.57;;
7074;SDS011;3578;51.568;6.932;2023-04-01T14:26:46;12.53;;;11.10;;
7074;SDS011;3578;51.568;6.932;2023-04-01T14:29:52;13.13;;;11.73;;
7074;SDS011;3578;51.568;6.932;2023-04-01T14:32:33;13.07;;;11.63;;
7074;SDS011;3578;51.568;6.932;2023-04-01T14:35:14;13.43;;;11.70;;
7074;SDS011;3578;51.568;6.932;2023-04-01T14:38:04;11.97;;;10.80;;
7074;SDS011;3578;51.568;6.932;2023-04-01T14:41:01;10.37;;;9.50;;
7074;SDS011;3578;51.568;6.932;2023-04-01T14:43:48;11.63;;;10.50;;
7074;SDS011;3578;51.568;6.932;2023-04-01T14:47:04;12.67;;;11.10;;
7074;SDS011;3578;51.568;6.932;2023-04-01T14:50:07;11.83;;;10.73;;
7074;SDS011;3578;51.568;6.932;2023-04-01T14:52:39;9.80;;;9.00;;
7074;SDS011;3578;51.568;6.932;2023-04-01T14:58:00;11.40;;;10.30;;
7074;SDS011;3578;51.568;6.932;2023-04-01T15:03:37;12.20;;;11.00;;
7074;SDS011;3578;51.568;6.932;2023-04-01T15:06:26;11.50;;;10.40;;
7074;SDS011;3578;51.568;6.932;2023-04-01T15:09:08;10.90;;;10.00;;
7074;SDS011;3578;51.568;6.932;2023-04-01T15:11:48;11.30;;;10.10;;
7074;SDS011;3578;51.568;6.932;2023-04-01T15:14:34;10.20;;;9.30;;
7074;SDS011;3578;51.568;6.932;2023-04-01T15:17:22;10.50;;;9.50;;
7074;SDS011;3578;51.568;6.932;2023-04-01T15:20:14;9.93;;;9.00;;
7074;SDS011;3578;51.568;6.932;2023-04-01T15:23:02;10.87;;;9.87;;
7074;SDS011;3578;51.568;6.932;2023-04-01T15:25:45;10.87;;;9.87;;
7074;SDS011;3578;51.568;6.932;2023-04-01T15:28:49;9.57;;;8.77;;
7074;SDS011;3578;51.568;6.932;2023-04-01T15:31:31;10.47;;;9.47;;
7074;SDS011;3578;51.568;6.932;2023-04-01T15:34:11;9.70;;;8.90;;
7074;SDS011;3578;51.568;6.932;2023-04-01T15:36:53;9.87;;;8.87;;
7074;SDS011;3578;51.568;6.932;2023-04-01T15:39:28;10.63;;;9.63;;
7074;SDS011;3578;51.568;6.932;2023-04-01T15:42:11;9.60;;;8.70;;
7074;SDS011;3578;51.568;6.932;2023-04-01T15:44:56;7.80;;;7.00;;
7074;SDS011;3578;51.568;6.932;2023-04-01T15:48:01;8.70;;;7.90;;
7074;SDS011;3578;51.568;6.932;2023-04-01T15:56:41;7.70;;;7.00;;
7074;SDS011;3578;51.568;6.932;2023-04-01T15:59:27;8.90;;;7.27;;
7074;SDS011;3578;51.568;6.932;2023-04-01T16:02:34;7.83;;;7.10;;
7074;SDS011;3578;51.568;6.932;2023-04-01T16:05:07;7.20;;;6.50;;
7074;SDS011;3578;51.568;6.932;2023-04-01T16:07:56;10.47;;;8.73;;
7074;SDS011;3578;51.568;6.932;2023-04-01T16:10:48;10.23;;;9.40;;
7074;SDS011;3578;51.568;6.932;2023-04-01T16:13:30;9.40;;;8.60;;
7074;SDS011;3578;51.568;6.932;2023-04-01T16:16:14;8.53;;;7.90;;
7074;SDS011;3578;51.568;6.932;2023-04-01T16:18:55;9.63;;;8.70;;
7074;SDS011;3578;51.568;6.932;2023-04-01T16:21:43;9.70;;;8.80;;
7074;SDS011;3578;51.568;6.932;2023-04-01T16:24:22;8.77;;;8.07;;
7074;SDS011;3578;51.568;6.932;2023-04-01T16:27:00;10.93;;;9.47;;
7074;SDS011;3578;51.568;6.932;2023-04-01T16:29:33;10.40;;;9.57;;
7074;SDS011;3578;51.568;6.932;2023-04-01T16:32:27;10.57;;;9.50;;
7074;SDS011;3578;51.568;6.932;2023-04-01T16:35:23;8.83;;;8.03;;
7074;SDS011;3578;51.568;6.932;2023-04-01T16:38:03;10.10;;;9.17;;
7074;SDS011;3578;51.568;6.932;2023-04-01T16:40:44;12.10;;;10.90;;
7074;SDS011;3578;51.568;6.932;2023-04-01T16:43:25;12.50;;;11.30;;
7074;SDS011;3578;51.568;6.932;2023-04-01T16:46:12;12.70;;;11.50;;
7074;SDS011;3578;51.568;6.932;2023-04-01T16:49:00;12.27;;;10.97;;
7074;SDS011;3578;51.568;6.932;2023-04-01T16:51:44;10.90;;;9.97;;
7074;SDS011;3578;51.568;6.932;2023-04-01T16:54:26;11.87;;;10.77;;
7074;SDS011;3578;51.568;6.932;2023-04-01T16:57:03;11.80;;;10.60;;
7074;SDS011;3578;51.568;6.932;2023-04-01T16:59:44;9.97;;;9.07;;
7074;SDS011;3578;51.568;6.932;2023-04-01T17:02:21;10.53;;;9.43;;
7074;SDS011;3578;51.568;6.932;2023-04-01T17:04:57;10.70;;;9.50;;
7074;SDS011;3578;51.568;6.932;2023-04-01T17:07:31;11.00;;;9.20;;
7074;SDS011;3578;51.568;6.932;2023-04-01T17:10:35;9.67;;;8.77;;
7074;SDS011;3578;51.568;6.932;2023-04-01T17:13:18;9.70;;;8.80;;
7074;SDS011;3578;51.568;6.932;2023-04-01T17:16:06;9.70;;;8.80;;
7074;SDS011;3578;51.568;6.932;2023-04-01T17:19:10;14.27;;;9.70;;
7074;SDS011;3578;51.568;6.932;2023-04-01T17:21:55;11.10;;;10.10;;
7074;SDS011;3578;51.568;6.932;2023-04-01T17:24:38;12.10;;;11.00;;
7074;SDS011;3578;51.568;6.932;2023-04-01T17:27:20;10.07;;;9.13;;
7074;SDS011;3578;51.568;6.932;2023-04-01T17:30:14;13.07;;;9.00;;
7074;SDS011;3578;51.568;6.932;2023-04-01T17:32:59;10.80;;;9.70;;
7074;SDS011;3578;51.568;6.932;2023-04-01T17:35:49;9.73;;;8.93;;
7074;SDS011;3578;51.568;6.932;2023-04-01T17:38:37;10.40;;;9.40;;
7074;SDS011;3578;51.568;6.932;2023-04-01T17:41:28;10.00;;;9.10;;
7074;SDS011;3578;51.568;6.932;2023-04-01T17:44:11;10.07;;;9.03;;
7074;SDS011;3578;51.568;6.932;2023-04-01T17:47:10;9.63;;;8.83;;
7074;SDS011;3578;51.568;6.932;2023-04-01T17:49:57;9.40;;;8.47;;